Gravette, AR (72736)

3:47 PM CST on December 20, 2014 (GMT -0600)
Gravette Westside | Change Station
CLOSE
Current Station
Personal Weather Station
Location: Gravette, AR
Elevation: 1220 ft
Nearby Weather Stations

Elev 1220 ft 36.42 °N, 94.46 °W | Updated 11 seconds ago

Overcast
Overcast
40.7 °F
Feels Like 38 °F
N
3.8
Wind Variable Wind from SSW
Gusts 5.6 mph

Today
High -- | Low -- °F
--% Chance of Precip.
Yesterday
High -- | Low -- °F
Precip. -- in
7:25 AM 5:05 PM
Waning Crescent, 2% visible
Pressure 30.18 in
Visibility 10.0 miles
Clouds Overcast 2100 ft
Windchill 38 °F
Dew Point -12 °F
Humidity 7%
Rainfall 0.00 in
Snow Depth Not available.
UV 0 out of 12
Pollen 5.70 out of 12
Air Quality Not available.
Flu Activity Not available.
METAR KXNA 202053Z 22006KT 10SM OVC021 07/03 A3017 RMK AO2 SLP218 T00670028 56013

More Conditions Fewer Conditions

Pressure 30.18 in
Visibility 10.0 miles
Clouds Overcast 2100 ft
Windchill 38 °F
Dew Point -12 °F
Humidity 7%
Rainfall 0.00 in
Snow Depth Not available.
UV 0 out of 12
Pollen 5.70 out of 12
Air Quality Not available.
Flu Activity Not available.
METAR KXNA 202053Z 22006KT 10SM OVC021 07/03 A3017 RMK AO2 SLP218 T00670028 56013

More Conditions Fewer Conditions

10-Day Weather Forecast

Almanac

Astronomy

Dec. 20, 2014 Rise Set
Actual Time
Civil Twilight
Nautical Twilight
Astronomical Twilight
Moon
Length of Visible Light
Length of Day
Tomorrow will be .
, % of the Moon is Illuminated

Today's Extremes

State Highs State Lows

Community

WunderPhotos

Upload Photos

1,779,286 photos uploaded!

WunderBlogs® & News

Nearby

Air Quality

  Air Quality AQ Index Pollutant
Not available.

Snow Depth

Station Depth Elevation

Earthquake Activity

City Distance Mag. Time & Date
Minimum magnitude displayed is 2.5.

Coastal Water Temperatures

Place Temperature

Nearby Weather Stations